Terminal Aerodrome Forecast
Issued by NWS Jacksonville, FL

Home | Current Version | Previous Version | Text Only | Print | Product List | Glossary On
Versions: 1 2 3 4 5 6 7 8 9 10 11 12 13 14 15 16 17 18 19
579
FTUS42 KJAX 060520
TAFSSI
TAF
KSSI 060520Z 0606/0706 29006KT P6SM SCT080
     FM061400 30011G16KT P6SM FEW080
     FM070200 30008KT P6SM FEW050=

USA.gov is the U.S. government's official web portal to all federal, state and local government web resources and services.